Time;durP1;ratioP1;P1;durP2;ratioP2;P2;SDS_P1;SDS_P2;PMS_P1;PMS_P2;Temp;Humidity;BMP_temperature;BMP_pressure;BME280_temperature;BME280_humidity;BME280_pressure;Samples;Min_cycle;Max_cycle;Signal;HPM_P1;HPM_P2
2023/03/10 00:05:19;;;;;;;28.30;20.50;;;;;;;7.86;67.97;97454.77;218336;195;3693086;-65
2023/03/10 00:10:29;;;;;;;30.90;20.10;;;;;;;7.86;67.96;97451.95;222702;188;144230;-66
2023/03/10 00:15:35;;;;;;;30.00;20.80;;;;;;;7.84;67.83;97451.52;223078;187;139402;-65
2023/03/10 00:20:58;;;;;;;32.60;22.00;;;;;;;7.85;67.70;97444.27;222964;186;136563;-64
2023/03/10 00:26:40;;;;;;;34.90;23.80;;;;;;;7.88;67.78;97433.06;223036;186;143393;-65
2023/03/10 00:32:13;;;;;;;36.10;24.70;;;;;;;7.85;67.87;97421.79;222980;187;138867;-65
2023/03/10 00:37:41;;;;;;;36.00;24.10;;;;;;;7.82;68.17;97414.06;223006;186;136907;-66
2023/03/10 00:43:03;;;;;;;39.50;25.50;;;;;;;7.81;68.15;97400.58;223052;187;144359;-68
2023/03/10 00:48:26;;;;;;;38.80;25.80;;;;;;;7.77;68.23;97403.20;223051;187;138934;-67
2023/03/10 00:54:06;;;;;;;49.90;27.70;;;;;;;7.70;68.13;97396.30;222953;186;137184;-65
2023/03/10 01:01:52;;;;;;;41.40;25.00;;;;;;;7.58;68.32;97377.10;220302;194;666608;-64
2023/03/10 01:07:24;;;;;;;41.00;25.50;;;;;;;7.53;68.41;97372.02;223528;183;137385;-65
2023/03/10 01:12:49;;;;;;;49.00;27.10;;;;;;;7.56;68.37;97363.48;223677;181;143872;-65
2023/03/10 01:18:04;;;;;;;44.40;27.50;;;;;;;7.56;68.24;97365.45;222241;183;141158;-67
2023/03/10 01:23:22;;;;;;;42.90;26.50;;;;;;;7.53;68.29;97361.61;223380;183;137258;-66
2023/03/10 01:28:25;;;;;;;45.60;28.50;;;;;;;7.44;68.66;97353.98;223189;182;144017;-77
2023/03/10 01:33:29;;;;;;;41.30;26.20;;;;;;;7.47;68.92;97352.73;223383;182;138700;-77
2023/03/10 01:38:34;;;;;;;43.60;26.20;;;;;;;7.48;69.11;97356.34;223505;183;136695;-75
2023/03/10 01:43:40;;;;;;;43.50;25.90;;;;;;;7.45;69.11;97340.16;223507;183;143400;-77
2023/03/10 01:48:44;;;;;;;;;;;;;;;7.37;69.18;97339.20;223474;183;138969;-59
2023/03/10 01:53:47;;;;;;;38.80;27.10;;;;;;;7.22;69.27;97330.12;223493;183;130089;-60
2023/03/10 01:58:51;;;;;;;41.50;26.80;;;;;;;7.10;69.35;97333.28;223474;183;145223;-61
2023/03/10 02:04:00;;;;;;;47.50;27.50;;;;;;;7.03;69.67;97337.02;223497;183;139743;-61
2023/03/10 02:09:04;;;;;;;39.80;24.30;;;;;;;7.00;69.89;97319.95;223695;183;137259;-60
2023/03/10 02:14:08;;;;;;;42.00;25.90;;;;;;;6.97;69.94;97318.74;223585;180;145324;-61
2023/03/10 02:19:27;;;;;;;40.60;26.40;;;;;;;7.00;69.93;97321.74;223529;184;138338;-59
2023/03/10 02:25:06;;;;;;;43.40;25.80;;;;;;;7.02;69.83;97320.71;223585;183;136671;-59
2023/03/10 02:30:23;;;;;;;47.90;28.30;;;;;;;6.95;69.77;97311.85;223520;183;145613;-60
2023/03/10 02:35:27;;;;;;;40.40;27.90;;;;;;;6.89;69.89;97317.09;223508;184;138153;-60
2023/03/10 02:40:44;;;;;;;43.10;26.80;;;;;;;6.82;70.02;97317.23;223555;184;136832;-61
2023/03/10 02:45:52;;;;;;;42.40;27.50;;;;;;;6.73;70.14;97311.93;223474;183;145410;-59
2023/03/10 02:50:59;;;;;;;38.40;27.10;;;;;;;6.63;70.27;97302.04;223606;183;138564;-58
2023/03/10 02:56:02;;;;;;;42.40;26.20;;;;;;;6.59;70.70;97295.36;223579;183;138598;-61
2023/03/10 03:01:06;;;;;;;28.90;18.80;;;;;;;6.72;71.80;97292.41;223582;184;145029;-60
2023/03/10 03:06:13;;;;;;;29.30;18.20;;;;;;;6.99;71.57;97283.02;223500;184;138505;-61
2023/03/10 03:11:19;;;;;;;37.70;24.60;;;;;;;7.15;70.88;97276.81;223368;183;138005;-61
2023/03/10 03:16:22;;;;;;;35.80;24.50;;;;;;;7.12;69.54;97267.76;223495;184;146727;-59
2023/03/10 03:21:29;;;;;;;36.60;24.90;;;;;;;6.99;69.28;97266.59;223525;183;138528;-61
2023/03/10 03:26:33;;;;;;;36.80;24.50;;;;;;;6.85;69.43;97259.87;223483;184;137611;-59
2023/03/10 03:31:47;;;;;;;35.90;23.70;;;;;;;6.75;69.33;97250.24;223516;183;145283;-60
2023/03/10 03:36:56;;;;;;;38.10;24.00;;;;;;;6.66;69.36;97248.30;223430;184;138498;-60
2023/03/10 03:42:04;;;;;;;36.00;23.20;;;;;;;6.59;69.42;97247.23;223495;183;137650;-60
2023/03/10 03:47:15;;;;;;;35.00;23.10;;;;;;;6.52;69.53;97247.03;223456;184;145759;-61
2023/03/10 03:52:19;;;;;;;36.70;23.60;;;;;;;6.39;69.74;97246.94;223451;183;138284;-59
2023/03/10 03:57:23;;;;;;;30.50;21.20;;;;;;;6.26;69.88;97241.90;223580;184;137145;-59
2023/03/10 04:02:27;;;;;;;45.00;28.90;;;;;;;6.27;70.44;97235.88;223408;184;145019;-59
2023/03/10 04:07:31;;;;;;;29.00;20.60;;;;;;;6.32;70.33;97232.35;223452;183;138817;-59
2023/03/10 04:12:34;;;;;;;29.40;20.60;;;;;;;6.39;70.01;97230.02;223494;184;136795;-58
2023/03/10 04:17:38;;;;;;;26.30;17.90;;;;;;;6.33;69.93;97216.73;223494;184;145581;-62
2023/03/10 04:22:41;;;;;;;157.90;99.40;;;;;;;6.29;70.11;97204.74;223510;183;138412;-62
2023/03/10 04:27:45;;;;;;;25.60;18.30;;;;;;;6.36;70.67;97198.20;223499;183;137070;-60
2023/03/10 04:32:48;;;;;;;25.60;17.70;;;;;;;6.45;70.62;97195.98;223569;183;145807;-60
2023/03/10 04:37:53;;;;;;;24.50;15.90;;;;;;;6.41;70.29;97198.56;223437;183;139793;-63
2023/03/10 04:42:58;;;;;;;21.40;14.70;;;;;;;6.46;70.75;97193.44;223487;183;138424;-63
2023/03/10 04:48:02;;;;;;;63.10;42.40;;;;;;;6.44;70.56;97177.73;223532;183;146269;-62
2023/03/10 04:53:05;;;;;;;22.30;15.20;;;;;;;6.43;70.89;97169.85;223500;183;159988;-60
2023/03/10 04:58:08;;;;;;;21.80;15.10;;;;;;;6.35;70.03;97160.42;223459;184;138329;-61
2023/03/10 05:03:12;;;;;;;27.10;17.80;;;;;;;6.31;69.76;97164.44;223612;183;145115;-63
2023/03/10 05:08:16;;;;;;;31.10;20.20;;;;;;;6.23;69.67;97165.92;223547;183;138455;-61
2023/03/10 05:13:19;;;;;;;34.00;23.00;;;;;;;6.13;69.50;97161.88;223533;184;142929;-61
2023/03/10 05:18:22;;;;;;;33.50;23.80;;;;;;;6.07;69.55;97164.97;223382;184;145086;-67
2023/03/10 05:23:26;;;;;;;36.30;23.30;;;;;;;6.00;69.49;97161.30;223559;184;139804;-59
2023/03/10 05:28:30;;;;;;;36.90;24.40;;;;;;;5.95;69.65;97157.98;223567;184;137150;-61
2023/03/10 05:33:34;;;;;;;37.90;23.90;;;;;;;5.89;69.87;97156.60;223609;184;146319;-61
2023/03/10 05:38:37;;;;;;;36.00;24.00;;;;;;;5.85;70.37;97153.73;223525;184;138058;-58
2023/03/10 05:43:42;;;;;;;36.80;22.70;;;;;;;5.84;70.76;97151.70;223538;184;138536;-61
2023/03/10 05:48:46;;;;;;;36.20;24.10;;;;;;;5.81;70.94;97139.05;223604;184;145347;-60
2023/03/10 05:53:49;;;;;;;37.10;23.50;;;;;;;5.85;71.21;97134.34;223602;183;140038;-64
2023/03/10 05:58:57;;;;;;;32.50;23.60;;;;;;;5.93;71.55;97128.70;223651;183;137274;-60
2023/03/10 06:04:05;;;;;;;35.30;24.10;;;;;;;6.03;71.63;97121.08;223488;184;147208;-65
2023/03/10 06:09:08;;;;;;;35.80;24.70;;;;;;;6.12;71.80;97114.24;223446;184;138587;-64
2023/03/10 06:14:11;;;;;;;41.60;25.40;;;;;;;6.18;71.72;97101.15;223390;184;137463;-59
2023/03/10 06:19:14;;;;;;;38.20;24.90;;;;;;;6.26;71.95;97096.44;223575;184;145326;-58
2023/03/10 06:24:18;;;;;;;35.90;25.30;;;;;;;6.35;71.97;97093.48;223470;184;138932;-58
2023/03/10 06:29:21;;;;;;;34.30;25.10;;;;;;;6.40;72.33;97088.17;223590;184;136675;-60
2023/03/10 06:35:21;;;;;;;31.70;20.20;;;;;;;6.60;72.79;97083.84;219679;193;676886;-60
2023/03/10 06:40:25;;;;;;;14.90;9.10;;;;;;;6.83;73.57;97077.43;222237;183;137504;-59
2023/03/10 06:45:28;;;;;;;14.00;8.40;;;;;;;7.26;74.02;97077.77;223595;184;143430;-60
2023/03/10 06:50:31;;;;;;;15.00;7.60;;;;;;;7.80;73.54;97076.02;223571;181;138450;-59
2023/03/10 06:55:35;;;;;;;14.80;8.10;;;;;;;8.25;73.03;97071.96;223520;184;136893;-62
2023/03/10 07:00:38;;;;;;;11.80;4.20;;;;;;;8.61;72.59;97064.95;223681;183;143840;-61
2023/03/10 07:05:42;;;;;;;7.20;3.30;;;;;;;9.01;71.20;97058.34;223693;183;139776;-59
2023/03/10 07:10:45;;;;;;;8.50;2.60;;;;;;;9.38;69.90;97045.85;223717;183;135824;-59
2023/03/10 07:15:48;;;;;;;5.60;2.40;;;;;;;9.70;68.30;97038.20;223645;183;145013;-61
2023/03/10 07:20:53;;;;;;;6.30;2.10;;;;;;;9.96;67.36;97029.28;223693;183;138267;-60
2023/03/10 07:25:56;;;;;;;4.00;1.80;;;;;;;10.18;66.25;97023.33;223698;183;136506;-60
2023/03/10 07:31:10;;;;;;;4.40;1.80;;;;;;;10.40;65.23;97016.20;223631;183;145741;-61
2023/03/10 07:36:17;;;;;;;3.90;2.00;;;;;;;10.59;64.47;97009.29;223589;183;138291;-63
2023/03/10 07:41:21;;;;;;;4.60;1.70;;;;;;;10.77;64.13;97004.48;223596;183;137674;-61
2023/03/10 07:46:24;;;;;;;7.50;2.10;;;;;;;10.93;63.72;97000.52;223511;184;145958;-61
2023/03/10 07:51:28;;;;;;;7.20;2.00;;;;;;;11.15;62.50;96992.54;223488;183;138820;-60
2023/03/10 07:56:31;;;;;;;3.70;2.00;;;;;;;11.36;61.98;96986.97;223504;184;136411;-60
2023/03/10 08:01:34;;;;;;;5.30;1.60;;;;;;;11.56;61.03;96985.23;223575;183;147228;-61
2023/03/10 08:06:37;;;;;;;4.60;1.70;;;;;;;11.81;60.32;96981.58;223488;183;139696;-60
2023/03/10 08:11:40;;;;;;;5.00;1.40;;;;;;;12.03;59.16;96971.20;223514;184;136530;-61
2023/03/10 08:16:43;;;;;;;3.90;1.30;;;;;;;12.26;58.27;96962.27;223645;184;145154;-60
2023/03/10 08:21:47;;;;;;;3.80;1.20;;;;;;;12.51;57.25;96953.52;223554;183;138304;-59
2023/03/10 08:26:50;;;;;;;7.00;1.40;;;;;;;12.78;56.42;96942.88;223634;184;136795;-61
2023/03/10 08:31:53;;;;;;;9.00;1.50;;;;;;;13.06;56.26;96935.45;223596;184;146693;-61
2023/03/10 08:36:57;;;;;;;3.30;1.20;;;;;;;13.34;54.77;96926.27;223653;184;139801;-58
2023/03/10 08:42:01;;;;;;;3.10;0.60;;;;;;;13.60;52.84;96918.48;223526;183;136546;-60
2023/03/10 08:47:04;;;;;;;9.20;1.20;;;;;;;13.82;50.68;96914.13;223651;184;145287;-59
2023/03/10 08:52:08;;;;;;;7.50;1.40;;;;;;;14.03;49.72;96905.40;223543;183;138460;-60
2023/03/10 08:57:11;;;;;;;5.80;1.10;;;;;;;14.28;48.67;96900.07;223622;183;139552;-62
2023/03/10 09:02:14;;;;;;;5.50;1.10;;;;;;;14.54;46.86;96899.41;223558;184;145088;-61
2023/03/10 09:07:17;;;;;;;3.20;0.80;;;;;;;14.79;45.42;96901.83;223583;183;138385;-63
2023/03/10 09:12:20;;;;;;;4.40;0.80;;;;;;;15.02;43.23;96901.59;223576;183;136936;-62
2023/03/10 09:17:24;;;;;;;2.80;0.80;;;;;;;15.09;43.42;96901.28;223679;183;145794;-60
2023/03/10 09:22:27;;;;;;;2.80;0.90;;;;;;;15.12;43.43;96904.95;223563;183;140514;-59
2023/03/10 09:27:30;;;;;;;3.70;0.90;;;;;;;15.13;44.04;96903.38;223562;182;136747;-63
2023/03/10 09:32:33;;;;;;;7.70;1.60;;;;;;;15.17;44.09;96901.70;223628;183;145298;-63
2023/03/10 09:37:37;;;;;;;6.90;0.90;;;;;;;15.21;43.85;96897.77;223496;183;138030;-60
2023/03/10 09:42:58;;;;;;;2.60;0.90;;;;;;;15.30;44.12;96894.28;223668;183;137375;-63
2023/03/10 09:48:12;;;;;;;2.90;1.00;;;;;;;15.40;44.29;96888.42;223596;182;146114;-62
2023/03/10 09:53:34;;;;;;;2.70;1.10;;;;;;;15.53;44.17;96886.91;223563;183;138469;-60
2023/03/10 09:58:44;;;;;;;3.80;1.30;;;;;;;15.66;44.33;96880.10;223533;183;137318;-60
2023/03/10 10:18:37;;;;;;;4.30;1.20;;;;;;;16.05;44.25;96859.00;221806;193;666293;-65
2023/03/10 10:23:46;;;;;;;3.30;1.20;;;;;;;16.11;43.50;96848.31;223042;187;137401;-68
2023/03/10 10:28:58;;;;;;;2.40;1.20;;;;;;;16.34;42.85;96847.96;223456;182;144790;-66
2023/03/10 10:34:36;;;;;;;2.70;0.90;;;;;;;16.65;42.40;96829.73;223469;183;140840;-65
2023/03/10 10:39:42;;;;;;;2.10;1.00;;;;;;;16.95;41.09;96822.66;223226;183;136613;-66
2023/03/10 10:44:46;;;;;;;2.60;1.30;;;;;;;17.31;41.17;96814.77;223839;183;143541;-66
2023/03/10 10:49:49;;;;;;;8.00;1.00;;;;;;;17.60;39.94;96811.50;223828;183;138394;-66
2023/03/10 10:54:57;;;;;;;2.00;1.10;;;;;;;17.63;39.51;96806.23;223913;183;136216;-64
2023/03/10 11:00:27;;;;;;;3.90;1.00;;;;;;;17.68;39.45;96789.77;223841;183;145167;-64
2023/03/10 11:05:37;;;;;;;7.00;1.50;;;;;;;17.95;39.05;96781.00;223856;182;138874;-68
2023/03/10 11:10:41;;;;;;;2.60;1.10;;;;;;;18.24;38.82;96774.46;222896;183;137242;-66
2023/03/10 11:15:54;;;;;;;2.00;0.80;;;;;;;18.41;37.57;96766.25;223780;183;145410;-67
2023/03/10 11:21:11;;;;;;;1.60;1.10;;;;;;;18.50;36.80;96762.19;223794;183;138410;-65
2023/03/10 11:26:53;;;;;;;4.60;1.20;;;;;;;18.59;36.50;96753.65;223838;183;137902;-68
2023/03/10 11:32:08;;;;;;;6.00;1.30;;;;;;;18.62;37.41;96741.63;223621;184;145259;-66
2023/03/10 11:37:23;;;;;;;3.60;1.00;;;;;;;18.66;36.43;96732.94;223323;184;139018;-66
2023/03/10 11:42:32;;;;;;;;;;;;;;;18.66;36.06;96733.10;223381;184;136676;-66
2023/03/10 11:47:42;;;;;;;3.40;1.00;;;;;;;18.68;36.55;96732.57;223495;184;145309;-67
2023/03/10 11:52:48;;;;;;;2.40;1.20;;;;;;;18.83;37.23;96724.14;223260;184;140244;-69
2023/03/10 11:57:56;;;;;;;3.90;1.20;;;;;;;19.05;36.23;96721.69;223448;184;136620;-71
2023/03/10 12:03:18;;;;;;;2.70;1.10;;;;;;;19.21;35.71;96716.52;223458;184;145319;-69
2023/03/10 12:08:24;;;;;;;5.40;1.10;;;;;;;19.39;35.73;96706.89;223632;184;138444;-68
2023/03/10 12:13:39;;;;;;;4.50;1.30;;;;;;;19.56;34.72;96708.34;223477;183;136954;-68
2023/03/10 12:18:42;;;;;;;6.30;1.20;;;;;;;19.62;33.90;96702.27;223491;184;145834;-69
2023/03/10 12:23:49;;;;;;;6.00;1.20;;;;;;;19.69;34.31;96705.39;223461;184;140321;-70
2023/03/10 12:29:20;;;;;;;4.50;1.30;;;;;;;19.84;34.39;96697.40;223553;184;136709;-68
2023/03/10 12:34:31;;;;;;;2.10;1.30;;;;;;;19.87;34.08;96690.63;223579;184;146912;-67
2023/03/10 12:39:38;;;;;;;2.10;1.20;;;;;;;19.83;34.04;96680.87;223539;184;139027;-69
2023/03/10 12:44:47;;;;;;;3.20;1.00;;;;;;;19.83;34.13;96680.36;223509;184;136637;-67
2023/03/10 12:50:02;;;;;;;5.40;1.50;;;;;;;19.87;33.96;96678.95;223567;184;145981;-66
2023/03/10 12:55:26;;;;;;;4.20;1.20;;;;;;;19.90;33.84;96689.91;223503;184;140445;-68
2023/03/10 13:00:43;;;;;;;3.50;1.30;;;;;;;19.84;33.70;96690.34;222950;182;136965;-63
2023/03/10 13:06:13;;;;;;;6.50;1.40;;;;;;;19.81;34.03;96694.29;223976;182;145297;-63
2023/03/10 13:11:17;;;;;;;2.80;1.20;;;;;;;19.93;33.91;96688.04;223884;182;138522;-64
2023/03/10 13:16:21;;;;;;;4.80;1.40;;;;;;;19.98;33.07;96693.58;223900;182;137699;-65
2023/03/10 13:21:29;;;;;;;1.60;0.90;;;;;;;20.11;33.31;96692.54;223925;183;146336;-62
2023/03/10 13:26:35;;;;;;;4.60;1.20;;;;;;;20.23;32.78;96687.55;223906;182;138423;-67
2023/03/10 13:31:39;;;;;;;2.50;1.30;;;;;;;20.33;32.76;96690.54;223821;182;137089;-66
2023/03/10 13:36:42;;;;;;;4.90;1.20;;;;;;;20.45;33.28;96682.44;223630;182;145840;-64
2023/03/10 13:41:49;;;;;;;4.20;1.50;;;;;;;20.61;32.99;96686.27;223533;182;139145;-63
2023/03/10 13:46:55;;;;;;;2.60;1.40;;;;;;;20.53;32.62;96690.97;223688;182;137105;-64
2023/03/10 13:52:08;;;;;;;4.00;1.60;;;;;;;20.19;32.98;96694.80;223540;182;147529;-65
2023/03/10 13:57:18;;;;;;;3.60;1.50;;;;;;;19.73;33.48;96698.81;223666;183;138421;-64
2023/03/10 14:02:34;;;;;;;3.60;1.70;;;;;;;19.37;34.30;96694.23;223721;183;136998;-66
2023/03/10 14:07:39;;;;;;;2.80;1.30;;;;;;;19.08;34.91;96687.30;223704;182;145623;-63
2023/03/10 14:12:45;;;;;;;8.20;1.50;;;;;;;18.85;35.42;96686.11;223704;183;140792;-65
2023/03/10 14:18:18;;;;;;;4.90;1.30;;;;;;;18.70;36.13;96686.37;223740;183;136392;-64
2023/03/10 14:23:26;;;;;;;7.80;1.30;;;;;;;18.56;36.25;96683.43;223747;183;145787;-67
2023/03/10 14:28:48;;;;;;;7.10;1.70;;;;;;;18.51;36.68;96672.02;221569;193;666365;-67
2023/03/10 14:33:51;;;;;;;22.80;17.40;;;;;;;18.41;37.03;96673.77;223536;184;136973;-69
2023/03/10 14:38:55;;;;;;;5.10;2.00;;;;;;;18.35;37.61;96664.59;223556;183;143722;-68
2023/03/10 14:44:00;;;;;;;5.20;1.70;;;;;;;18.29;37.09;96660.36;223532;183;138432;-65
2023/03/10 14:49:07;;;;;;;4.70;1.50;;;;;;;18.18;37.07;96655.27;223657;184;136741;-63
2023/03/10 14:54:17;;;;;;;7.90;1.90;;;;;;;18.05;37.45;96649.90;223533;184;145382;-64
2023/03/10 14:59:20;;;;;;;5.30;1.70;;;;;;;17.98;37.83;96640.77;223534;185;138690;-65
2023/03/10 15:04:24;;;;;;;28.60;16.40;;;;;;;17.94;38.05;96634.09;223666;183;136590;-67
2023/03/10 15:09:27;;;;;;;4.80;1.70;;;;;;;17.92;38.05;96631.39;223550;183;146135;-65
2023/03/10 15:14:31;;;;;;;6.90;1.90;;;;;;;17.86;38.11;96631.83;223635;183;138113;-65
2023/03/10 15:19:34;;;;;;;9.10;2.00;;;;;;;17.86;38.28;96631.95;223620;183;136864;-65
2023/03/10 15:24:38;;;;;;;6.60;1.70;;;;;;;17.84;38.46;96633.60;223627;183;145363;-66
2023/03/10 15:29:41;;;;;;;9.40;3.80;;;;;;;17.78;38.58;96625.20;223689;183;139902;-69
2023/03/10 15:34:45;;;;;;;8.50;2.70;;;;;;;17.81;40.44;96627.00;223693;183;136980;-68
2023/03/10 15:39:48;;;;;;;11.20;2.20;;;;;;;17.87;39.86;96621.48;223591;183;146142;-66
2023/03/10 15:44:52;;;;;;;3.50;1.50;;;;;;;17.81;38.99;96620.13;223525;184;138164;-65
2023/03/10 15:49:56;;;;;;;5.50;1.70;;;;;;;17.69;39.04;96616.50;223565;184;136906;-65
2023/03/10 15:55:00;;;;;;;8.70;2.30;;;;;;;17.62;39.13;96606.48;223588;184;147360;-64
2023/03/10 16:00:04;;;;;;;8.70;2.10;;;;;;;17.54;39.40;96608.88;223531;184;139575;-64
2023/03/10 16:05:09;;;;;;;8.00;2.30;;;;;;;17.47;39.52;96611.95;223589;184;136607;-66
2023/03/10 16:10:19;;;;;;;9.10;2.00;;;;;;;17.39;39.46;96614.95;223561;184;145492;-65
2023/03/10 16:15:26;;;;;;;8.90;2.20;;;;;;;17.32;39.45;96611.60;223533;184;138298;-65
2023/03/10 16:20:29;;;;;;;9.40;2.50;;;;;;;17.23;39.61;96612.05;223584;184;137113;-64
2023/03/10 16:25:33;;;;;;;8.20;2.40;;;;;;;17.14;39.76;96619.63;223584;183;145623;-67
2023/03/10 16:35:37;;;;;;;10.30;2.20;;;;;;;17.00;40.19;96625.19;221145;193;1675832;-65
2023/03/10 16:40:49;;;;;;;7.40;2.30;;;;;;;16.92;40.44;96628.11;223205;187;136176;-64
2023/03/10 16:45:52;;;;;;;9.90;2.70;;;;;;;16.86;40.60;96624.09;223276;187;143546;-65
2023/03/10 16:50:55;;;;;;;7.70;2.40;;;;;;;16.80;40.85;96629.83;223526;185;138702;-64
2023/03/10 16:56:03;;;;;;;11.20;2.30;;;;;;;16.75;40.91;96635.27;223483;185;137045;-63
2023/03/10 17:01:06;;;;;;;6.80;2.60;;;;;;;16.68;41.17;96639.27;223654;184;151569;-64
2023/03/10 17:06:12;;;;;;;7.50;2.40;;;;;;;16.61;41.39;96641.69;223610;184;138273;-65
2023/03/10 17:11:27;;;;;;;8.00;2.40;;;;;;;16.57;41.75;96641.56;223762;184;136526;-65
2023/03/10 17:16:32;;;;;;;9.30;3.00;;;;;;;16.48;41.83;96640.65;223763;183;143576;-64
2023/03/10 17:21:38;;;;;;;9.20;2.60;;;;;;;16.42;42.11;96648.36;223792;183;139865;-65
2023/03/10 17:26:41;;;;;;;8.00;2.90;;;;;;;16.37;42.47;96650.04;223688;183;137666;-65
2023/03/10 17:31:49;;;;;;;5.80;2.90;;;;;;;16.27;43.08;96658.14;223633;183;145841;-64
2023/03/10 17:36:53;;;;;;;5.50;2.80;;;;;;;16.06;45.30;96678.74;223767;183;138976;-67
2023/03/10 17:41:56;;;;;;;4.20;2.40;;;;;;;15.75;47.66;96682.67;223706;183;136796;-65
2023/03/10 17:47:00;;;;;;;4.50;1.90;;;;;;;15.45;48.76;96675.63;223735;183;147525;-64
2023/03/10 17:52:05;;;;;;;4.10;2.00;;;;;;;15.07;49.53;96678.14;223666;183;138091;-64
2023/03/10 17:57:08;;;;;;;2.90;1.40;;;;;;;14.69;50.63;96678.48;223678;183;136595;-65
2023/03/10 18:02:12;;;;;;;2.70;1.10;;;;;;;14.38;51.46;96669.71;223681;183;146053;-65
2023/03/10 18:07:16;;;;;;;1.60;1.00;;;;;;;14.26;52.13;96675.21;223649;183;139836;-64
2023/03/10 18:12:19;;;;;;;1.80;0.90;;;;;;;14.12;52.56;96683.79;223748;184;137181;-65
2023/03/10 18:17:25;;;;;;;2.30;1.00;;;;;;;14.04;52.91;96689.71;223686;183;146506;-66
2023/03/10 18:22:28;;;;;;;1.60;0.90;;;;;;;13.92;53.71;96699.69;223677;183;138748;-66
2023/03/10 18:27:33;;;;;;;3.00;1.10;;;;;;;13.79;54.47;96708.27;223626;183;137730;-64
2023/03/10 18:32:36;;;;;;;4.10;1.30;;;;;;;13.67;55.41;96702.29;223691;183;145776;-65
2023/03/10 18:37:40;;;;;;;3.80;1.50;;;;;;;13.56;56.16;96701.42;223617;184;138329;-64
2023/03/10 18:42:44;;;;;;;4.00;2.00;;;;;;;13.44;56.74;96689.36;223607;183;136450;-65
2023/03/10 18:47:47;;;;;;;5.20;1.90;;;;;;;13.31;57.47;96677.98;223657;180;145654;-64
2023/03/10 18:52:51;;;;;;;5.30;2.80;;;;;;;13.17;58.31;96664.73;223559;184;139911;-66
2023/03/10 18:57:55;;;;;;;6.40;2.40;;;;;;;13.06;58.74;96642.61;223621;183;136461;-64
2023/03/10 19:02:59;;;;;;;4.30;1.90;;;;;;;12.94;59.38;96631.70;223697;183;146643;-65
2023/03/10 19:08:03;;;;;;;3.90;2.20;;;;;;;12.78;59.59;96638.94;223687;183;138370;-66
2023/03/10 19:13:10;;;;;;;4.00;2.10;;;;;;;12.70;60.07;96634.13;223623;183;136820;-65
2023/03/10 19:18:17;;;;;;;5.00;2.40;;;;;;;12.68;60.67;96640.27;223641;183;145478;-64
2023/03/10 19:23:21;;;;;;;5.20;2.50;;;;;;;12.67;60.43;96636.95;223634;183;139533;-63
2023/03/10 19:28:25;;;;;;;6.30;2.70;;;;;;;12.61;60.83;96639.38;223602;183;136578;-65
2023/03/10 19:33:28;;;;;;;7.00;2.80;;;;;;;12.59;61.13;96609.39;223661;183;145383;-65
2023/03/10 19:38:34;;;;;;;4.40;2.60;;;;;;;12.58;61.23;96604.36;223703;182;139791;-64
2023/03/10 19:43:40;;;;;;;9.40;4.30;;;;;;;12.64;61.05;96604.96;223707;182;136628;-64
2023/03/10 19:48:44;;;;;;;6.30;3.10;;;;;;;12.63;60.66;96595.64;223715;182;145110;-65
2023/03/10 19:53:51;;;;;;;6.80;3.70;;;;;;;12.62;60.58;96586.45;223697;182;139281;-64
2023/03/10 19:58:55;;;;;;;6.00;3.40;;;;;;;12.64;60.43;96578.08;223655;181;136888;-64
2023/03/10 20:04:01;;;;;;;7.00;3.90;;;;;;;12.64;60.06;96589.05;223671;182;145738;-66
2023/03/10 20:09:09;;;;;;;;;;;;;;;12.68;59.67;96601.98;223632;181;139545;-67
2023/03/10 20:14:13;;;;;;;4.90;2.80;;;;;;;12.69;59.64;96603.31;223724;180;129006;-65
2023/03/10 20:19:18;;;;;;;4.90;3.00;;;;;;;12.67;59.79;96588.94;223700;182;145376;-65
2023/03/10 20:24:22;;;;;;;5.40;2.80;;;;;;;12.65;59.98;96583.61;223654;181;138840;-66
2023/03/10 20:35:27;;;;;;;7.70;3.50;;;;;;;12.59;60.71;96576.15;220198;193;677988;-67
2023/03/10 20:40:31;;;;;;;5.50;3.20;;;;;;;12.49;60.48;96574.02;223296;187;136299;-65
2023/03/10 20:45:35;;;;;;;5.80;3.10;;;;;;;12.49;59.92;96577.92;223793;182;144880;-66
2023/03/10 20:50:39;;;;;;;4.90;3.20;;;;;;;12.51;59.78;96567.14;223713;183;138253;-65
2023/03/10 20:55:43;;;;;;;8.00;3.60;;;;;;;12.50;59.82;96563.95;223779;183;136855;-67
2023/03/10 21:00:47;;;;;;;6.10;3.70;;;;;;;12.49;59.77;96558.50;223750;182;143525;-67
2023/03/10 21:05:52;;;;;;;5.90;3.20;;;;;;;12.49;59.65;96554.57;223776;182;139500;-66
2023/03/10 21:10:56;;;;;;;6.60;3.70;;;;;;;12.53;59.47;96546.10;223964;180;137232;-66
2023/03/10 21:15:59;;;;;;;5.00;3.20;;;;;;;12.51;59.33;96539.77;223796;181;144079;-65
2023/03/10 21:21:08;;;;;;;7.60;3.60;;;;;;;12.48;59.34;96531.65;224068;180;139009;-65
2023/03/10 21:26:19;;;;;;;6.30;3.80;;;;;;;12.44;59.36;96526.91;223837;181;136545;-64
2023/03/10 21:31:23;;;;;;;5.70;3.50;;;;;;;12.42;59.41;96521.27;223816;181;146377;-66
2023/03/10 21:36:26;;;;;;;6.10;4.00;;;;;;;12.41;59.29;96509.95;223751;182;139393;-67
2023/03/10 21:41:30;;;;;;;6.90;3.90;;;;;;;12.38;59.32;96499.77;223857;182;137091;-65
2023/03/10 21:46:34;;;;;;;5.30;3.50;;;;;;;12.36;59.28;96495.81;223845;182;145709;-66
2023/03/10 21:51:38;;;;;;;7.40;4.00;;;;;;;12.30;59.32;96492.52;223765;181;139304;-65
2023/03/10 21:56:41;;;;;;;7.80;4.60;;;;;;;12.24;59.55;96488.93;223809;182;136972;-64
2023/03/10 22:01:45;;;;;;;5.20;3.80;;;;;;;12.19;59.73;96478.66;223800;182;146410;-65
2023/03/10 22:06:49;;;;;;;6.20;4.00;;;;;;;12.16;59.75;96473.98;223819;182;139313;-68
2023/03/10 22:11:52;;;;;;;7.40;4.20;;;;;;;12.14;59.84;96469.88;223806;182;137175;-66
2023/03/10 22:16:56;;;;;;;5.50;3.60;;;;;;;12.17;59.79;96466.61;223842;182;145243;-66
2023/03/10 22:22:01;;;;;;;7.90;4.40;;;;;;;12.18;59.86;96461.14;223727;183;139317;-65
2023/03/10 22:27:04;;;;;;;7.00;4.50;;;;;;;12.13;60.18;96461.34;223811;182;149656;-66
2023/03/10 22:35:17;;;;;;;9.10;4.80;;;;;;;12.16;60.12;96458.55;222067;193;664883;-66
2023/03/10 22:40:23;;;;;;;7.10;4.20;;;;;;;12.11;60.12;96451.91;223409;185;136062;-67
2023/03/10 22:45:30;;;;;;;8.50;4.60;;;;;;;12.13;60.41;96448.05;223490;185;144229;-66
2023/03/10 22:50:37;;;;;;;8.20;4.20;;;;;;;12.09;60.71;96437.19;223849;181;138304;-65
2023/03/10 22:55:42;;;;;;;11.00;4.70;;;;;;;12.03;60.98;96428.77;223796;182;136149;-65
2023/03/10 23:00:46;;;;;;;8.60;4.80;;;;;;;12.02;61.35;96426.04;223915;181;143304;-65
2023/03/10 23:06:01;;;;;;;7.80;4.20;;;;;;;12.04;61.45;96433.73;223107;181;138289;-65
2023/03/10 23:11:10;;;;;;;7.10;4.50;;;;;;;12.04;61.27;96428.65;223766;181;137442;-66
2023/03/10 23:16:16;;;;;;;7.90;5.00;;;;;;;12.04;61.13;96423.66;223890;182;145083;-65
2023/03/10 23:21:20;;;;;;;8.60;5.20;;;;;;;12.05;60.93;96423.00;223933;181;138847;-66
2023/03/10 23:26:25;;;;;;;14.50;6.50;;;;;;;12.04;60.92;96424.92;223778;181;136371;-66
2023/03/10 23:31:29;;;;;;;9.10;6.40;;;;;;;12.06;60.71;96427.06;223823;181;145422;-66
2023/03/10 23:36:33;;;;;;;10.40;5.70;;;;;;;12.07;60.40;96428.52;223776;182;141068;-65
2023/03/10 23:41:37;;;;;;;11.80;6.00;;;;;;;12.07;60.05;96426.23;223716;182;136913;-66
2023/03/10 23:46:41;;;;;;;8.10;5.60;;;;;;;12.09;59.91;96428.69;223779;182;145852;-66
2023/03/10 23:51:44;;;;;;;9.30;6.40;;;;;;;12.12;59.73;96427.15;223806;181;139016;-66
2023/03/10 23:56:49;;;;;;;9.00;5.70;;;;;;;12.13;59.73;96429.98;223784;182;136455;-65
